createdAt,value
2019-06-26T00:02:23.153Z,94977.28
2019-06-26T00:04:51.787Z,94971.66
2019-06-26T00:07:20.413Z,94972.88
2019-06-26T00:09:49.140Z,94963.20
2019-06-26T00:12:17.832Z,94969.52
2019-06-26T00:14:46.460Z,94972.09
2019-06-26T00:17:15.100Z,94978.47
2019-06-26T00:19:43.729Z,94978.05
2019-06-26T00:22:12.358Z,94973.69
2019-06-26T00:24:41.010Z,94974.14
2019-06-26T00:27:09.649Z,94983.58
2019-06-26T00:29:38.285Z,94977.81
2019-06-26T00:32:06.938Z,94976.71
2019-06-26T00:34:35.626Z,94981.45
2019-06-26T00:37:04.242Z,94975.67
2019-06-26T00:39:32.907Z,94981.92
2019-06-26T00:42:01.613Z,94982.84
2019-06-26T00:44:30.231Z,94976.73
2019-06-26T00:46:58.887Z,94978.19
2019-06-26T00:49:27.530Z,94973.98
2019-06-26T00:51:56.158Z,94976.20
2019-06-26T00:54:24.819Z,94978.93
2019-06-26T00:56:53.453Z,94981.35
2019-06-26T00:59:22.061Z,94981.10
2019-06-26T01:01:50.784Z,94981.10
2019-06-26T01:04:26.669Z,94978.46
2019-06-26T01:06:55.216Z,94986.72
2019-06-26T01:09:23.939Z,94986.33
2019-06-26T01:11:52.566Z,94984.69
2019-06-26T01:14:21.200Z,94979.03
2019-06-26T01:16:49.863Z,94986.69
2019-06-26T01:19:18.495Z,94984.37
2019-06-26T01:21:47.133Z,94981.23
2019-06-26T01:24:15.932Z,94981.17
2019-06-26T01:26:44.552Z,94976.02
2019-06-26T01:29:13.178Z,94987.19
2019-06-26T01:31:41.829Z,94989.16
2019-06-26T01:34:10.455Z,94989.44
2019-06-26T01:36:39.076Z,94992.69
2019-06-26T01:39:07.752Z,94983.20
2019-06-26T01:41:36.377Z,94987.71
2019-06-26T01:44:14.907Z,94987.10
2019-06-26T01:46:35.748Z,94987.53
2019-06-26T01:49:04.377Z,94989.94
2019-06-26T01:51:32.997Z,94988.15
2019-06-26T01:54:01.646Z,94984.38
2019-06-26T01:56:30.266Z,94991.42
2019-06-26T01:58:58.903Z,94995.30
2019-06-26T02:01:27.557Z,94993.95
2019-06-26T02:03:56.190Z,94993.39
2019-06-26T02:06:24.829Z,94999.08
2019-06-26T02:08:53.486Z,94989.69
2019-06-26T02:11:22.108Z,94996.72
2019-06-26T02:13:50.668Z,94994.30
2019-06-26T02:16:19.332Z,94992.63
2019-06-26T02:18:52.306Z,94993.47
2019-06-26T02:21:20.930Z,94998.20
2019-06-26T02:23:49.591Z,94992.68
2019-06-26T02:26:18.214Z,94997.94
2019-06-26T02:28:46.846Z,94994.33
2019-06-26T02:31:15.497Z,95005.38
2019-06-26T02:33:44.113Z,94994.48
2019-06-26T02:36:12.741Z,95004.40
2019-06-26T02:38:41.404Z,94997.52
2019-06-26T02:41:10.017Z,95000.77
2019-06-26T02:43:38.644Z,95010.11
2019-06-26T02:46:07.320Z,95004.89
2019-06-26T02:48:35.941Z,95005.20
2019-06-26T02:51:04.567Z,95001.86
2019-06-26T02:53:33.227Z,95001.48
2019-06-26T02:56:01.845Z,94998.72
2019-06-26T02:58:30.470Z,95002.40
2019-06-26T03:00:59.109Z,95005.06
2019-06-26T03:03:27.739Z,94993.47
2019-06-26T03:05:56.450Z,94998.16
2019-06-26T03:08:25.195Z,94996.00
2019-06-26T03:10:53.815Z,95009.63
2019-06-26T03:13:22.362Z,95003.85
2019-06-26T03:15:51.038Z,95010.32
2019-06-26T03:18:19.658Z,95009.89
2019-06-26T03:20:55.911Z,95007.52
2019-06-26T03:23:25.498Z,95007.13
2019-06-26T03:25:54.139Z,95004.89
2019-06-26T03:28:22.766Z,95007.03
2019-06-26T03:30:51.419Z,95002.78
2019-06-26T03:33:20.047Z,94997.55
2019-06-26T03:35:48.663Z,95004.34
2019-06-26T03:38:17.378Z,94997.49
2019-06-26T03:40:46.109Z,94999.76
2019-06-26T03:43:14.730Z,94996.56
2019-06-26T03:45:43.409Z,94993.64
2019-06-26T03:48:12.004Z,94986.44
2019-06-26T03:50:40.633Z,94993.20
2019-06-26T03:53:09.391Z,94983.77
2019-06-26T03:55:38.055Z,94985.09
2019-06-26T03:58:06.681Z,94993.32
2019-06-26T04:00:42.477Z,94990.14
2019-06-26T04:03:12.506Z,94997.81
2019-06-26T04:05:41.138Z,94996.36
2019-06-26T04:08:09.819Z,94994.86
2019-06-26T04:10:38.435Z,95001.76
2019-06-26T04:13:07.064Z,95004.37
2019-06-26T04:15:41.937Z,95007.96
2019-06-26T04:18:06.065Z,95009.53
2019-06-26T04:20:34.698Z,95017.38
2019-06-26T04:23:04.789Z,95016.66
2019-06-26T04:25:33.439Z,95016.48
2019-06-26T04:28:02.266Z,95013.38
2019-06-26T04:30:31.010Z,95016.71
2019-06-26T04:32:59.636Z,95016.10
2019-06-26T04:35:28.274Z,95014.37
2019-06-26T04:37:56.970Z,95007.65
2019-06-26T04:40:25.693Z,95011.17
2019-06-26T04:42:54.313Z,95024.42
2019-06-26T04:45:22.971Z,95021.81
2019-06-26T04:47:51.596Z,95022.26
2019-06-26T04:50:20.416Z,95022.19
2019-06-26T04:52:49.087Z,95017.75
2019-06-26T04:55:17.714Z,95022.38
2019-06-26T04:57:46.350Z,95024.37
2019-06-26T05:00:15.535Z,95027.64
2019-06-26T05:02:44.147Z,95026.28
2019-06-26T05:05:13.072Z,95028.36
2019-06-26T05:07:41.736Z,95028.39
2019-06-26T05:10:10.951Z,95025.60
2019-06-26T05:12:39.583Z,95032.34
2019-06-26T05:15:09.079Z,95033.48
2019-06-26T05:17:37.757Z,95039.67
2019-06-26T05:20:10.908Z,95039.11
2019-06-26T05:22:39.590Z,95033.11
2019-06-26T05:25:09.177Z,95037.59
2019-06-26T05:27:37.795Z,95041.66
2019-06-26T05:30:07.313Z,95037.25
2019-06-26T05:32:35.903Z,95046.36
2019-06-26T05:35:08.684Z,95039.78
2019-06-26T05:37:37.345Z,95049.48
2019-06-26T05:40:12.865Z,95054.42
2019-06-26T05:42:41.473Z,95054.25
2019-06-26T05:45:10.648Z,95056.70
2019-06-26T05:47:39.269Z,95048.86
2019-06-26T05:50:08.403Z,95059.63
2019-06-26T05:52:37.144Z,95049.73
2019-06-26T05:55:07.273Z,95047.53
2019-06-26T05:57:35.905Z,95052.05
2019-06-26T06:00:07.488Z,95056.88
2019-06-26T06:02:36.114Z,95062.30
2019-06-26T06:05:08.491Z,95057.75
2019-06-26T06:07:38.060Z,95064.69
2019-06-26T06:10:06.979Z,95068.89
2019-06-26T06:12:35.603Z,95057.59
2019-06-26T06:15:06.348Z,95068.42
2019-06-26T06:17:35.074Z,95065.25
2019-06-26T06:20:05.020Z,95064.17
2019-06-26T06:22:33.685Z,95070.17
2019-06-26T06:25:03.058Z,95073.25
2019-06-26T06:27:31.763Z,95074.57
2019-06-26T06:30:00.435Z,95067.75
2019-06-26T06:32:29.111Z,95073.34
2019-06-26T06:34:57.676Z,95078.29
2019-06-26T06:37:26.337Z,95081.56
2019-06-26T06:39:54.971Z,95084.17
2019-06-26T06:42:23.580Z,95075.44
2019-06-26T06:44:52.259Z,95067.70
2019-06-26T06:47:20.875Z,95071.70
2019-06-26T06:49:49.495Z,95073.06
2019-06-26T06:52:18.153Z,95075.87
2019-06-26T06:54:46.776Z,95073.11
2019-06-26T06:57:15.401Z,95084.41
2019-06-26T06:59:44.059Z,95077.05
2019-06-26T07:02:12.684Z,95077.76
2019-06-26T07:04:41.310Z,95071.63
2019-06-26T07:07:09.954Z,95074.70
2019-06-26T07:09:38.526Z,95066.47
2019-06-26T07:12:07.130Z,95073.25
2019-06-26T07:14:35.784Z,95078.26
2019-06-26T07:17:19.224Z,95076.45
2019-06-26T07:19:34.845Z,95089.12
2019-06-26T07:22:07.101Z,95091.72
2019-06-26T07:24:33.815Z,95091.45
2019-06-26T07:27:02.433Z,95096.64
2019-06-26T07:29:31.087Z,95098.98
2019-06-26T07:31:59.715Z,95096.59
2019-06-26T07:34:28.337Z,95101.53
2019-06-26T07:36:57.009Z,95099.95
2019-06-26T07:39:25.811Z,95102.75
2019-06-26T07:41:54.426Z,95100.55
2019-06-26T07:44:23.069Z,95099.56
2019-06-26T07:46:51.713Z,95095.91
2019-06-26T07:49:20.331Z,95095.05
2019-06-26T07:51:48.987Z,95092.71
2019-06-26T07:54:17.609Z,95096.86
2019-06-26T07:56:46.226Z,95093.70
2019-06-26T07:59:14.878Z,95095.16
2019-06-26T08:01:43.504Z,95097.22
2019-06-26T08:04:12.189Z,95095.24
2019-06-26T08:06:40.889Z,95102.09
2019-06-26T08:09:09.471Z,95097.11
2019-06-26T08:11:38.090Z,95097.27
2019-06-26T08:14:06.743Z,95098.22
2019-06-26T08:16:35.364Z,95100.39
2019-06-26T08:19:03.982Z,95093.09
2019-06-26T08:21:32.651Z,95096.03
2019-06-26T08:24:01.268Z,95094.42
2019-06-26T08:26:29.898Z,95100.11
2019-06-26T08:28:58.576Z,95103.81
2019-06-26T08:31:27.196Z,95098.48
2019-06-26T08:33:55.820Z,95106.87
2019-06-26T08:36:24.478Z,95096.03
2019-06-26T08:38:53.113Z,95097.84
2019-06-26T08:41:21.665Z,95103.03
2019-06-26T08:43:50.321Z,95114.13
2019-06-26T08:46:18.951Z,95108.97
2019-06-26T08:48:51.580Z,95112.24
2019-06-26T08:51:17.928Z,95112.92
2019-06-26T08:53:46.552Z,95118.73
2019-06-26T08:56:15.175Z,95119.12
2019-06-26T08:58:43.834Z,95116.98
2019-06-26T09:01:12.450Z,95119.25
2019-06-26T09:03:42.205Z,95115.42
2019-06-26T09:06:10.907Z,95118.73
2019-06-26T09:08:39.532Z,95117.52
2019-06-26T09:11:08.156Z,95112.88
2019-06-26T09:13:36.807Z,95116.48
2019-06-26T09:16:05.431Z,95120.87
2019-06-26T09:18:35.907Z,95114.83
2019-06-26T09:21:04.427Z,95120.09
2019-06-26T09:23:33.046Z,95118.80
2019-06-26T09:26:01.701Z,95106.41
2019-06-26T09:28:30.323Z,95108.31
2019-06-26T09:30:58.944Z,95101.92
2019-06-26T09:33:27.569Z,95105.77
2019-06-26T09:35:57.163Z,95104.75
2019-06-26T09:38:25.784Z,95111.23
2019-06-26T09:40:54.315Z,95101.80
2019-06-26T09:43:22.976Z,95097.44
2019-06-26T09:45:51.593Z,95103.96
2019-06-26T09:48:20.213Z,95106.95
2019-06-26T09:50:48.873Z,95097.21
2019-06-26T09:53:17.489Z,95096.55
2019-06-26T09:55:46.118Z,95099.45
2019-06-26T09:58:14.767Z,95098.13
2019-06-26T10:00:43.394Z,95097.98
2019-06-26T10:03:12.012Z,95095.30
2019-06-26T10:05:40.984Z,95093.59
2019-06-26T10:08:09.637Z,95097.67
2019-06-26T10:10:38.215Z,95098.20
2019-06-26T10:13:06.868Z,95091.09
2019-06-26T10:15:35.484Z,95090.13
2019-06-26T10:18:04.203Z,95088.50
2019-06-26T10:20:32.894Z,95081.98
2019-06-26T10:23:01.512Z,95086.66
2019-06-26T10:25:30.143Z,95076.19
2019-06-26T10:27:58.781Z,95079.92
2019-06-26T10:30:27.400Z,95073.39
2019-06-26T10:32:56.014Z,95070.00
2019-06-26T10:35:24.676Z,95073.71
2019-06-26T10:37:53.291Z,95067.89
2019-06-26T10:40:21.921Z,95073.47
2019-06-26T10:42:50.602Z,95077.05
2019-06-26T10:45:19.364Z,95070.61
2019-06-26T10:47:47.993Z,95068.78
2019-06-26T10:50:17.241Z,95060.67
2019-06-26T10:52:45.855Z,95067.86
2019-06-26T10:55:14.772Z,95057.42
2019-06-26T10:57:43.416Z,95066.05
2019-06-26T11:00:12.541Z,95051.13
2019-06-26T11:02:41.157Z,95058.22
2019-06-26T11:05:10.411Z,95054.81
2019-06-26T11:07:39.029Z,95051.01
2019-06-26T11:10:09.050Z,95049.94
2019-06-26T11:12:37.692Z,95045.68
2019-06-26T11:15:08.305Z,95039.80
2019-06-26T11:17:36.957Z,95042.04
2019-06-26T11:20:08.764Z,95036.87
2019-06-26T11:22:37.378Z,95038.35
2019-06-26T11:25:07.994Z,95045.39
2019-06-26T11:27:36.811Z,95039.76
2019-06-26T11:30:07.733Z,95036.05
2019-06-26T11:32:36.343Z,95033.59
2019-06-26T11:35:08.625Z,95028.91
2019-06-26T11:37:37.267Z,95025.16
2019-06-26T11:40:07.181Z,95031.39
2019-06-26T11:42:35.824Z,95029.47
2019-06-26T11:45:06.134Z,95030.56
2019-06-26T11:47:34.757Z,95033.88
2019-06-26T11:50:04.840Z,95025.51
2019-06-26T11:52:33.558Z,95019.30
2019-06-26T11:55:03.577Z,95025.44
2019-06-26T11:57:32.601Z,95022.63
2019-06-26T12:00:01.555Z,95033.18
2019-06-26T12:02:30.631Z,95020.95
2019-06-26T12:04:59.273Z,95024.28
2019-06-26T12:07:27.878Z,95027.70
2019-06-26T12:09:56.449Z,95011.20
2019-06-26T12:12:25.142Z,95012.14
2019-06-26T12:14:53.701Z,95009.41
2019-06-26T12:17:22.331Z,95013.36
2019-06-26T12:19:51.017Z,95018.82
2019-06-26T12:22:19.634Z,94995.22
2019-06-26T12:24:48.247Z,95003.60
2019-06-26T12:27:16.911Z,95001.77
2019-06-26T12:29:45.460Z,94999.72
2019-06-26T12:32:14.086Z,94992.91
2019-06-26T12:34:45.079Z,94990.27
2019-06-26T12:37:13.082Z,94989.03
2019-06-26T12:39:41.830Z,94987.56
2019-06-26T12:42:10.430Z,94989.12
2019-06-26T12:44:39.048Z,94986.61
2019-06-26T12:47:07.665Z,94990.52
2019-06-26T12:49:36.328Z,94983.55
2019-06-26T12:52:05.133Z,94983.19
2019-06-26T12:54:33.757Z,94990.10
2019-06-26T12:57:02.401Z,94982.42
2019-06-26T12:59:31.014Z,94988.44
2019-06-26T13:01:59.634Z,94977.96
2019-06-26T13:04:28.278Z,94981.21
2019-06-26T13:06:59.056Z,94974.97
2019-06-26T13:09:27.278Z,94971.06
2019-06-26T13:11:55.894Z,94971.34
2019-06-26T13:14:24.514Z,94955.15
2019-06-26T13:16:53.124Z,94965.44
2019-06-26T13:19:21.777Z,94962.67
2019-06-26T13:21:50.681Z,94954.70
2019-06-26T13:24:19.260Z,94956.02
2019-06-26T13:26:47.923Z,94951.66
2019-06-26T13:29:16.541Z,94946.66
2019-06-26T13:31:45.087Z,94943.21
2019-06-26T13:34:13.736Z,94953.33
2019-06-26T13:36:42.354Z,94958.48
2019-06-26T13:39:10.969Z,94953.88
2019-06-26T13:41:39.625Z,94951.61
2019-06-26T13:44:08.241Z,94941.36
2019-06-26T13:46:36.859Z,94934.09
2019-06-26T13:49:05.515Z,94946.70
2019-06-26T13:51:34.212Z,94937.78
2019-06-26T13:54:02.774Z,94940.89
2019-06-26T13:56:31.415Z,94948.06
2019-06-26T13:59:00.050Z,94936.18
2019-06-26T14:01:28.652Z,94935.95
2019-06-26T14:03:57.303Z,94945.46
2019-06-26T14:06:25.917Z,94944.59
2019-06-26T14:08:54.578Z,94939.39
2019-06-26T14:11:23.261Z,94940.81
2019-06-26T14:13:51.883Z,94934.86
2019-06-26T14:16:20.532Z,94932.72
2019-06-26T14:18:49.262Z,94933.97
2019-06-26T14:21:25.478Z,94927.21
2019-06-26T14:23:48.243Z,94926.81
2019-06-26T14:26:16.884Z,94924.94
2019-06-26T14:28:45.500Z,94927.64
2019-06-26T14:31:14.120Z,94923.51
2019-06-26T14:33:42.768Z,94920.53
2019-06-26T14:36:11.380Z,94922.94
2019-06-26T14:38:39.998Z,94912.36
2019-06-26T14:41:08.645Z,94910.94
2019-06-26T14:43:37.259Z,94915.26
2019-06-26T14:46:05.801Z,94912.20
2019-06-26T14:48:34.453Z,94918.07
2019-06-26T14:51:03.074Z,94906.56
2019-06-26T14:53:31.682Z,94911.88
2019-06-26T14:56:00.329Z,94907.89
2019-06-26T14:58:28.941Z,94904.36
2019-06-26T15:00:57.558Z,94901.37
2019-06-26T15:03:26.228Z,94912.52
2019-06-26T15:05:54.831Z,94915.20
2019-06-26T15:08:23.448Z,94897.75
2019-06-26T15:10:52.100Z,94895.49
2019-06-26T15:13:20.730Z,94902.13
2019-06-26T15:15:49.354Z,94904.39
2019-06-26T15:18:18.000Z,94896.10
2019-06-26T15:20:46.629Z,94894.52
2019-06-26T15:23:15.186Z,94909.50
2019-06-26T15:25:43.823Z,94911.67
2019-06-26T15:28:12.449Z,94913.88
2019-06-26T15:30:41.071Z,94910.16
2019-06-26T15:33:09.728Z,94898.02
2019-06-26T15:35:38.344Z,94893.58
2019-06-26T15:38:06.974Z,94901.72
2019-06-26T15:40:35.620Z,94906.38
2019-06-26T15:43:04.246Z,94901.16
2019-06-26T15:45:32.872Z,94907.08
2019-06-26T15:48:01.525Z,94896.89
2019-06-26T15:50:30.178Z,94902.36
2019-06-26T15:52:58.770Z,94898.88
2019-06-26T15:55:27.430Z,94897.27
2019-06-26T15:57:55.983Z,94904.12
2019-06-26T16:00:24.601Z,94901.48
2019-06-26T16:02:53.262Z,94903.10
2019-06-26T16:05:21.887Z,94898.20
2019-06-26T16:07:50.510Z,94903.98
2019-06-26T16:10:19.172Z,94913.78
2019-06-26T16:12:47.792Z,94928.81
2019-06-26T16:15:16.521Z,94922.53
2019-06-26T16:18:04.352Z,94928.73
2019-06-26T16:20:32.987Z,94929.12
2019-06-26T16:23:01.617Z,94938.46
2019-06-26T16:25:30.202Z,94949.33
2019-06-26T16:28:05.560Z,94942.55
2019-06-26T16:30:29.089Z,94946.23
2019-06-26T16:32:57.729Z,94936.62
2019-06-26T16:35:26.423Z,94931.66
2019-06-26T16:37:55.048Z,94929.55
2019-06-26T16:40:23.701Z,94918.59
2019-06-26T16:42:52.318Z,94913.65
2019-06-26T16:45:20.937Z,94907.02
2019-06-26T16:47:49.599Z,94904.52
2019-06-26T16:50:18.256Z,94917.09
2019-06-26T16:52:49.818Z,94907.06
2019-06-26T16:55:17.215Z,94906.74
2019-06-26T16:57:46.046Z,94902.86
2019-06-26T17:00:14.971Z,94909.37
2019-06-26T17:02:43.628Z,94925.94
2019-06-26T17:05:13.720Z,94907.25
2019-06-26T17:07:42.337Z,94904.32
2019-06-26T17:10:10.986Z,94898.68
2019-06-26T17:12:39.606Z,94897.45
2019-06-26T17:15:08.728Z,94900.41
2019-06-26T17:17:37.383Z,94896.35
2019-06-26T17:20:06.729Z,94887.79
2019-06-26T17:22:35.513Z,94889.61
2019-06-26T17:25:04.660Z,94897.70
2019-06-26T17:27:33.276Z,94893.47
2019-06-26T17:30:01.884Z,94897.48
2019-06-26T17:32:30.639Z,94895.33
2019-06-26T17:34:59.275Z,94887.20
2019-06-26T17:37:27.881Z,94875.39
2019-06-26T17:39:56.544Z,94860.47
2019-06-26T17:42:25.158Z,94861.06
2019-06-26T17:44:53.784Z,94872.16
2019-06-26T17:47:22.438Z,94884.80
2019-06-26T17:49:51.076Z,94883.00
2019-06-26T17:52:19.672Z,94887.70
2019-06-26T17:54:48.322Z,94880.70
2019-06-26T17:57:16.938Z,94881.29
2019-06-26T17:59:45.567Z,94890.52
2019-06-26T18:02:14.242Z,94887.70
2019-06-26T18:04:42.863Z,94894.77
2019-06-26T18:07:11.648Z,94887.71
2019-06-26T18:09:40.406Z,94886.87
2019-06-26T18:12:09.027Z,94881.37
2019-06-26T18:14:37.661Z,94889.00
2019-06-26T18:17:21.108Z,94893.72
2019-06-26T18:19:36.674Z,94887.63
2019-06-26T18:22:05.381Z,94896.80
2019-06-26T18:24:34.117Z,94894.81
2019-06-26T18:27:02.754Z,94897.45
2019-06-26T18:29:31.402Z,94904.59
2019-06-26T18:32:00.061Z,94899.28
2019-06-26T18:34:28.693Z,94896.11
2019-06-26T18:36:57.323Z,94905.70
2019-06-26T18:39:25.985Z,94917.00
2019-06-26T18:41:54.689Z,94925.47
2019-06-26T18:44:23.325Z,94928.20
2019-06-26T18:46:52.063Z,94932.09
2019-06-26T18:49:20.698Z,94933.74
2019-06-26T18:51:49.327Z,94934.55
2019-06-26T18:54:18.007Z,94927.83
2019-06-26T18:56:46.613Z,94928.97
2019-06-26T18:59:15.249Z,94935.53
2019-06-26T19:01:43.998Z,94935.75
2019-06-26T19:04:12.637Z,94937.19
2019-06-26T19:06:41.311Z,94937.64
2019-06-26T19:09:09.934Z,94928.50
2019-06-26T19:11:38.641Z,94940.51
2019-06-26T19:14:07.340Z,94936.62
2019-06-26T19:16:36.498Z,94939.89
2019-06-26T19:19:05.236Z,94935.55
2019-06-26T19:21:36.871Z,94937.08
2019-06-26T19:24:10.131Z,94931.63
2019-06-26T19:26:34.872Z,94932.52
2019-06-26T19:29:03.513Z,94927.20
2019-06-26T19:31:32.189Z,94932.86
2019-06-26T19:34:00.816Z,94932.66
2019-06-26T19:36:29.530Z,94932.47
2019-06-26T19:38:59.587Z,94926.20
2019-06-26T19:41:28.318Z,94936.67
2019-06-26T19:43:57.945Z,94929.16
2019-06-26T19:46:26.710Z,94923.14
2019-06-26T19:48:57.594Z,94919.92
2019-06-26T19:51:25.762Z,94928.39
2019-06-26T19:53:54.430Z,94924.00
2019-06-26T19:56:23.063Z,94922.12
2019-06-26T19:58:51.759Z,94928.49
2019-06-26T20:01:20.518Z,94933.48
2019-06-26T20:03:49.223Z,94936.89
2019-06-26T20:06:17.861Z,94935.96
2019-06-26T20:08:53.364Z,94936.72
2019-06-26T20:11:16.965Z,94933.73
2019-06-26T20:13:45.658Z,94936.72
2019-06-26T20:16:14.333Z,94942.11
2019-06-26T20:18:42.964Z,94937.44
2019-06-26T20:21:11.593Z,94944.33
2019-06-26T20:23:40.251Z,94944.22
2019-06-26T20:26:08.908Z,94939.84
2019-06-26T20:28:37.531Z,94950.98
2019-06-26T20:31:06.200Z,94946.73
2019-06-26T20:33:34.834Z,94945.63
2019-06-26T20:36:03.492Z,94945.07
2019-06-26T20:38:32.123Z,94948.69
2019-06-26T20:41:01.639Z,94945.52
2019-06-26T20:43:30.276Z,94943.81
2019-06-26T20:45:58.934Z,94936.08
2019-06-26T20:48:27.756Z,94941.44
2019-06-26T20:50:56.394Z,94938.98
2019-06-26T20:53:27.895Z,94939.19
2019-06-26T20:55:55.395Z,94946.14
2019-06-26T20:58:24.017Z,94940.17
2019-06-26T21:00:52.767Z,94940.78
2019-06-26T21:03:21.474Z,94938.56
2019-06-26T21:05:50.081Z,94938.30
2019-06-26T21:08:18.663Z,94939.23
2019-06-26T21:10:47.287Z,94932.83
2019-06-26T21:13:15.911Z,94934.90
2019-06-26T21:15:44.564Z,94932.72
2019-06-26T21:18:13.366Z,94926.38
2019-06-26T21:20:41.989Z,94923.02
2019-06-26T21:23:18.504Z,94923.05
2019-06-26T21:25:40.984Z,94932.02
2019-06-26T21:28:09.621Z,94930.30
2019-06-26T21:30:38.283Z,94928.22
2019-06-26T21:33:06.912Z,94928.20
2019-06-26T21:35:35.543Z,94930.22
2019-06-26T21:38:04.203Z,94930.07
2019-06-26T21:40:32.823Z,94938.28
2019-06-26T21:43:02.841Z,94933.11
2019-06-26T21:45:31.496Z,94936.23
2019-06-26T21:48:00.133Z,94931.64
2019-06-26T21:50:29.297Z,94935.29
2019-06-26T21:52:58.019Z,94927.38
2019-06-26T21:55:34.312Z,94932.20
2019-06-26T21:57:57.032Z,94925.01
2019-06-26T22:00:25.998Z,94925.27
2019-06-26T22:02:57.732Z,94928.67
2019-06-26T22:05:25.084Z,94922.28
2019-06-26T22:07:53.741Z,94921.31
2019-06-26T22:10:22.370Z,94918.31
2019-06-26T22:12:50.999Z,94916.19
2019-06-26T22:15:19.659Z,94918.64
2019-06-26T22:17:48.302Z,94922.02
2019-06-26T22:20:17.408Z,94920.58
2019-06-26T22:22:46.072Z,94926.06
2019-06-26T22:25:15.230Z,94918.86
2019-06-26T22:27:43.897Z,94917.09
2019-06-26T22:30:13.064Z,94917.22
2019-06-26T22:32:41.990Z,94907.57
2019-06-26T22:35:11.008Z,94907.08
2019-06-26T22:37:39.663Z,94906.40
2019-06-26T22:40:08.579Z,94904.58
2019-06-26T22:42:37.220Z,94906.89
2019-06-26T22:45:07.714Z,94905.47
2019-06-26T22:47:36.313Z,94908.78
2019-06-26T22:50:07.374Z,94902.80
2019-06-26T22:52:36.033Z,94904.00
2019-06-26T22:55:06.557Z,94895.48
2019-06-26T22:57:35.187Z,94893.05
2019-06-26T23:00:05.818Z,94892.90
2019-06-26T23:02:34.438Z,94887.75
2019-06-26T23:05:03.373Z,94884.74
2019-06-26T23:07:32.039Z,94887.28
2019-06-26T23:10:00.661Z,94885.87
2019-06-26T23:12:29.288Z,94881.04
2019-06-26T23:14:57.948Z,94882.73
2019-06-26T23:17:26.567Z,94884.19
2019-06-26T23:19:55.187Z,94883.33
2019-06-26T23:22:23.859Z,94877.68
2019-06-26T23:24:52.483Z,94880.92
2019-06-26T23:27:21.172Z,94871.84
2019-06-26T23:29:49.834Z,94873.03
2019-06-26T23:32:18.453Z,94871.11
2019-06-26T23:34:47.075Z,94868.20
2019-06-26T23:37:15.777Z,94873.30
2019-06-26T23:39:44.396Z,94878.67
2019-06-26T23:42:13.018Z,94873.75
2019-06-26T23:44:41.675Z,94875.80
2019-06-26T23:47:11.177Z,94876.42
2019-06-26T23:49:39.765Z,94876.95
2019-06-26T23:52:08.412Z,94879.19
2019-06-26T23:54:37.042Z,94868.80
2019-06-26T23:57:05.658Z,94860.88
2019-06-26T23:59:34.312Z,94862.89
